Time;durP1;ratioP1;P1;durP2;ratioP2;P2;SDS_P1;SDS_P2;PMS_P1;PMS_P2;Temp;Humidity;BMP_temperature;BMP_pressure;BME280_temperature;BME280_humidity;BME280_pressure;Samples;Min_cycle;Max_cycle;Signal;HPM_P1;HPM_P2
2022/01/29 00:01:35;;;;;;;34.25;20.85;;;7.50;76.60;;;;;;5060070;28;20090;-85
2022/01/29 00:04:26;;;;;;;33.88;21.25;;;7.50;77.20;;;;;;5053874;28;20045;-85
2022/01/29 00:06:51;;;;;;;31.88;20.25;;;7.50;76.90;;;;;;5057870;28;20049;-85
2022/01/29 00:09:17;;;;;;;44.85;22.75;;;7.50;77.00;;;;;;5071200;28;20047;-84
2022/01/29 00:11:43;;;;;;;43.92;22.42;;;7.50;77.20;;;;;;5072101;28;20035;-86
2022/01/29 00:14:09;;;;;;;37.25;22.70;;;7.50;77.20;;;;;;5058540;28;20045;-85
2022/01/29 00:16:35;;;;;;;38.15;22.92;;;7.50;77.70;;;;;;5055451;28;20045;-85
2022/01/29 00:19:01;;;;;;;35.78;21.33;;;7.50;77.40;;;;;;5046295;28;20035;-85
2022/01/29 00:21:26;;;;;;;38.40;22.08;;;7.50;77.50;;;;;;5044052;28;20105;-85
2022/01/29 00:23:52;;;;;;;45.28;24.08;;;7.50;77.60;;;;;;5069151;28;20549;-85
2022/01/29 00:26:21;;;;;;;36.65;22.27;;;7.50;77.60;;;;;;5082922;28;20040;-86
2022/01/29 00:28:47;;;;;;;34.35;22.05;;;7.80;77.90;;;;;;5076692;28;20079;-85
2022/01/29 00:31:13;;;;;;;33.28;22.15;;;7.50;77.70;;;;;;5059489;28;20037;-86
2022/01/29 00:33:39;;;;;;;41.88;23.33;;;7.50;77.80;;;;;;5067342;28;20041;-85
2022/01/29 00:36:05;;;;;;;31.80;20.98;;;7.50;78.00;;;;;;5056121;28;20052;-85
2022/01/29 00:38:31;;;;;;;38.03;22.05;;;7.50;78.00;;;;;;5056996;28;20119;-85
2022/01/29 00:40:57;;;;;;;35.25;23.45;;;7.50;78.10;;;;;;5076956;28;20066;-85
2022/01/29 00:43:23;;;;;;;40.53;22.80;;;7.50;78.20;;;;;;5024961;28;20040;-85
2022/01/29 00:45:48;;;;;;;34.42;21.95;;;7.50;78.30;;;;;;5036661;28;20041;-85
2022/01/29 00:48:14;;;;;;;36.85;21.38;;;7.50;78.20;;;;;;5054560;28;20056;-84
2022/01/29 00:50:40;;;;;;;32.78;21.88;;;7.50;78.60;;;;;;5057764;28;20036;-85
2022/01/29 00:53:05;;;;;;;34.55;21.92;;;7.50;78.40;;;;;;5072282;28;20384;-86
2022/01/29 00:55:31;;;;;;;31.90;20.67;;;7.50;78.40;;;;;;5068127;28;20044;-86
2022/01/29 00:57:57;;;;;;;38.10;21.05;;;7.50;78.40;;;;;;5050913;28;20139;-85
2022/01/29 01:00:22;;;;;;;35.95;21.08;;;7.50;78.40;;;;;;5037423;28;20068;-85
2022/01/29 01:02:48;;;;;;;34.47;19.75;;;7.50;78.50;;;;;;5065673;28;20522;-85
2022/01/29 01:05:32;;;;;;;33.58;20.58;;;7.50;78.90;;;;;;5091228;28;20406;-84
2022/01/29 01:07:58;;;;;;;39.70;22.00;;;7.60;78.60;;;;;;5075846;28;20063;-85
2022/01/29 01:10:23;;;;;;;36.33;21.05;;;7.50;78.70;;;;;;5037150;28;20503;-84
2022/01/29 01:12:49;;;;;;;31.20;19.63;;;7.50;78.70;;;;;;5068950;28;20052;-85
2022/01/29 01:15:15;;;;;;;34.80;20.05;;;7.50;78.80;;;;;;5092308;28;20041;-85
2022/01/29 01:17:40;;;;;;;32.10;19.88;;;7.60;78.80;;;;;;5071911;28;20074;-85
2022/01/29 01:20:07;;;;;;;34.10;19.27;;;7.60;79.00;;;;;;5042760;28;20036;-87
2022/01/29 01:22:32;;;;;;;33.95;19.65;;;7.50;79.00;;;;;;5050691;28;20459;-85
2022/01/29 01:24:58;;;;;;;34.40;19.83;;;7.60;79.20;;;;;;5057336;28;20072;-86
2022/01/29 01:27:24;;;;;;;34.63;20.52;;;7.60;79.10;;;;;;5071604;28;20044;-85
2022/01/29 01:29:49;;;;;;;35.92;20.13;;;7.60;79.30;;;;;;5087026;28;20131;-85
2022/01/29 01:32:15;;;;;;;32.92;19.08;;;7.60;79.20;;;;;;5093388;28;20049;-85
2022/01/29 01:34:47;;;;;;;36.20;20.25;;;7.80;79.50;;;;;;5055481;28;20037;-85
2022/01/29 01:37:20;;;;;;;37.00;19.60;;;7.60;79.30;;;;;;5087298;28;20483;-85
2022/01/29 01:39:46;;;;;;;32.90;18.50;;;8.10;79.70;;;;;;5059695;28;20060;-86
2022/01/29 01:42:12;;;;;;;30.73;18.38;;;7.60;79.60;;;;;;5035850;28;20052;-85
2022/01/29 01:44:47;;;;;;;37.15;19.88;;;7.60;79.40;;;;;;5060533;28;20037;-85
2022/01/29 01:47:17;;;;;;;32.05;18.20;;;7.70;79.60;;;;;;5078765;28;20518;-85
2022/01/29 01:49:43;;;;;;;31.63;20.00;;;7.60;79.60;;;;;;5065996;28;21579;-84
2022/01/29 01:52:12;;;;;;;31.88;19.73;;;8.00;79.80;;;;;;5040076;28;20052;-85
2022/01/29 01:54:38;;;;;;;35.30;19.33;;;7.60;79.70;;;;;;5083936;28;20384;-85
2022/01/29 01:57:04;;;;;;;34.35;18.83;;;7.70;79.70;;;;;;5060385;28;20044;-85
2022/01/29 01:59:31;;;;;;;31.83;19.13;;;7.70;79.70;;;;;;5091105;28;20036;-85
2022/01/29 02:01:57;;;;;;;35.65;19.15;;;8.10;80.10;;;;;;5064509;28;20040;-85
2022/01/29 02:04:22;;;;;;;33.85;18.63;;;7.70;79.80;;;;;;5063346;28;20040;-85
2022/01/29 02:06:51;;;;;;;34.08;18.42;;;7.70;79.80;;;;;;5092813;28;20043;-86
2022/01/29 02:09:19;;;;;;;36.08;17.98;;;7.80;80.10;;;;;;5079920;28;20063;-85
2022/01/29 02:11:57;;;;;;;38.95;18.52;;;7.90;80.10;;;;;;5073327;28;20021;-85
2022/01/29 02:14:30;;;;;;;33.88;16.67;;;7.80;80.10;;;;;;5063322;28;20119;-86
2022/01/29 02:16:56;;;;;;;34.00;16.58;;;7.80;80.10;;;;;;5039524;28;20392;-85
2022/01/29 02:19:22;;;;;;;33.65;17.45;;;7.80;80.20;;;;;;5056582;28;20052;-85
2022/01/29 02:21:48;;;;;;;36.47;17.98;;;7.70;80.10;;;;;;5062424;28;20138;-85
2022/01/29 02:24:14;;;;;;;34.22;18.40;;;7.80;80.20;;;;;;5068318;28;20133;-85
2022/01/29 02:26:40;;;;;;;33.25;17.58;;;8.00;80.50;;;;;;5084513;28;20047;-86
2022/01/29 02:29:06;;;;;;;40.45;17.15;;;7.90;80.50;;;;;;5077430;28;20112;-84
2022/01/29 02:31:32;;;;;;;31.15;15.75;;;7.80;80.30;;;;;;5058838;28;20079;-85
2022/01/29 02:33:58;;;;;;;28.75;15.48;;;7.80;80.30;;;;;;5090716;28;20048;-86
2022/01/29 02:36:24;;;;;;;34.92;16.23;;;7.90;80.40;;;;;;5064079;28;20036;-86
2022/01/29 02:38:50;;;;;;;33.63;16.38;;;7.90;80.50;;;;;;5082573;28;20051;-85
2022/01/29 02:41:16;;;;;;;37.13;15.93;;;7.90;80.40;;;;;;5053632;28;20033;-85
2022/01/29 02:43:47;;;;;;;39.80;17.70;;;8.00;80.50;;;;;;5021973;28;20056;-86
2022/01/29 02:48:52;;;;;;;31.50;15.30;;;7.90;80.50;;;;;;5081826;28;20147;-86
2022/01/29 02:51:19;;;;;;;36.47;17.00;;;8.00;80.60;;;;;;5070535;28;20045;-85
2022/01/29 02:53:45;;;;;;;29.35;15.93;;;8.40;80.70;;;;;;5079769;28;20040;-85
2022/01/29 02:56:11;;;;;;;30.75;17.10;;;8.00;80.40;;;;;;5065881;28;20082;-86
2022/01/29 02:58:37;;;;;;;31.48;17.40;;;8.10;80.40;;;;;;5054645;28;20036;-86
2022/01/29 03:01:05;;;;;;;30.73;16.20;;;8.00;80.40;;;;;;5043457;28;20037;-85
2022/01/29 03:03:30;;;;;;;36.42;17.80;;;8.40;80.80;;;;;;5059873;28;20454;-85
2022/01/29 03:05:56;;;;;;;42.05;17.85;;;8.30;80.60;;;;;;5067902;28;20087;-86
2022/01/29 03:08:22;;;;;;;30.55;16.95;;;8.00;80.50;;;;;;5041049;28;20048;-85
2022/01/29 03:10:48;;;;;;;34.13;16.98;;;8.40;80.70;;;;;;5092539;28;20044;-86
2022/01/29 03:13:14;;;;;;;38.30;18.02;;;8.00;80.40;;;;;;5075106;28;20051;-86
2022/01/29 03:15:40;;;;;;;34.58;18.33;;;8.00;80.40;;;;;;5075092;28;20040;-86
2022/01/29 03:18:05;;;;;;;38.58;19.42;;;8.10;80.50;;;;;;5052600;28;20041;-86
2022/01/29 03:20:31;;;;;;;42.97;19.15;;;8.10;80.50;;;;;;5064743;28;20048;-86
2022/01/29 03:22:58;;;;;;;33.05;18.10;;;8.30;80.60;;;;;;5080683;28;20044;-85
2022/01/29 03:25:24;;;;;;;33.20;18.13;;;8.10;80.40;;;;;;5057816;28;20053;-86
2022/01/29 03:27:50;;;;;;;32.60;18.10;;;8.10;80.50;;;;;;5057501;28;20663;-85
2022/01/29 03:30:16;;;;;;;34.83;19.23;;;8.10;80.50;;;;;;5055173;28;20053;-85
2022/01/29 03:32:41;;;;;;;37.08;18.45;;;8.10;80.40;;;;;;5063219;28;20028;-85
2022/01/29 03:35:08;;;;;;;34.88;18.25;;;8.30;80.50;;;;;;5058296;28;20045;-85
2022/01/29 03:37:34;;;;;;;35.65;19.08;;;8.10;80.50;;;;;;5075168;28;20041;-85
2022/01/29 03:40:02;;;;;;;38.47;19.85;;;8.10;80.50;;;;;;5065882;28;20040;-85
2022/01/29 03:42:32;;;;;;;32.63;19.45;;;8.40;80.70;;;;;;5057927;28;20037;-85
2022/01/29 03:44:58;;;;;;;37.53;19.25;;;8.10;80.60;;;;;;5057411;28;20439;-86
2022/01/29 03:47:24;;;;;;;38.65;19.17;;;8.30;80.60;;;;;;5077205;28;20089;-86
2022/01/29 03:49:50;;;;;;;37.00;19.92;;;8.20;80.60;;;;;;5084561;28;20048;-85
2022/01/29 03:52:16;;;;;;;36.85;19.55;;;8.20;80.60;;;;;;5087317;28;20047;-86
2022/01/29 03:54:43;;;;;;;38.08;20.15;;;8.60;80.80;;;;;;5061673;28;20093;-85
2022/01/29 03:57:09;;;;;;;33.85;18.35;;;8.30;80.60;;;;;;5075217;28;20047;-86
2022/01/29 03:59:35;;;;;;;38.20;20.00;;;8.50;80.70;;;;;;5058876;28;20048;-85
2022/01/29 04:02:01;;;;;;;28.50;17.50;;;8.30;81.00;;;;;;5057910;28;20146;-85
2022/01/29 04:04:27;;;;;;;37.25;18.50;;;8.20;80.50;;;;;;5054449;28;20048;-85
2022/01/29 04:06:52;;;;;;;35.03;18.65;;;8.20;80.40;;;;;;5052003;28;20045;-85
2022/01/29 04:09:19;;;;;;;39.33;19.40;;;8.20;80.40;;;;;;5074059;28;20041;-85
2022/01/29 04:11:45;;;;;;;36.33;18.98;;;8.20;80.40;;;;;;5069077;28;20048;-85
2022/01/29 04:14:19;;;;;;;33.63;18.08;;;8.20;80.40;;;;;;5081591;28;20502;-86
2022/01/29 04:16:45;;;;;;;33.03;18.97;;;8.20;80.40;;;;;;5036031;28;20090;-86
2022/01/29 04:19:11;;;;;;;31.85;19.23;;;8.20;80.40;;;;;;5082408;28;20046;-86
2022/01/29 04:21:38;;;;;;;30.13;18.40;;;8.20;80.40;;;;;;5065224;28;20131;-85
2022/01/29 04:24:04;;;;;;;32.63;18.55;;;8.30;80.50;;;;;;5074254;28;20041;-85
2022/01/29 04:26:34;;;;;;;32.47;18.38;;;8.30;80.50;;;;;;5039622;28;20048;-85
2022/01/29 04:29:06;;;;;;;29.23;16.77;;;8.30;80.50;;;;;;5075331;28;20052;-84
2022/01/29 04:31:40;;;;;;;34.70;19.20;;;8.30;80.50;;;;;;5039583;28;20037;-85
2022/01/29 04:34:06;;;;;;;31.65;17.02;;;8.20;80.50;;;;;;5053597;28;20040;-86
2022/01/29 04:36:31;;;;;;;31.15;17.85;;;8.30;80.50;;;;;;5054353;28;20368;-85
2022/01/29 04:38:57;;;;;;;32.83;17.25;;;8.30;80.50;;;;;;5057752;28;20033;-85
2022/01/29 04:41:23;;;;;;;30.38;17.67;;;8.30;80.50;;;;;;5056458;28;20523;-85
2022/01/29 04:43:48;;;;;;;29.63;16.92;;;8.60;80.80;;;;;;5058320;28;20051;-86
2022/01/29 04:46:14;;;;;;;30.30;17.48;;;8.30;80.50;;;;;;5072352;28;20075;-85
2022/01/29 04:48:40;;;;;;;28.35;17.65;;;8.30;80.50;;;;;;5062068;28;20043;-85
2022/01/29 04:51:06;;;;;;;33.30;17.95;;;8.30;80.60;;;;;;5054290;28;20057;-86
2022/01/29 04:53:32;;;;;;;27.95;16.48;;;8.30;80.50;;;;;;5048629;28;20070;-86
2022/01/29 04:55:58;;;;;;;29.38;16.67;;;8.60;80.60;;;;;;5070341;28;20044;-86
2022/01/29 04:58:24;;;;;;;34.58;18.27;;;8.30;80.40;;;;;;5062745;28;20064;-86
2022/01/29 05:00:50;;;;;;;31.60;16.98;;;8.30;80.40;;;;;;5056818;28;20048;-86
2022/01/29 05:03:16;;;;;;;25.00;15.50;;;8.30;80.40;;;;;;5063167;28;20044;-86
2022/01/29 05:05:43;;;;;;;31.98;17.08;;;8.90;80.70;;;;;;5062709;28;20472;-86
2022/01/29 05:08:11;;;;;;;33.33;17.15;;;8.30;80.50;;;;;;5062088;28;20119;-86
2022/01/29 05:10:37;;;;;;;27.50;17.40;;;8.40;80.40;;;;;;5067926;28;20036;-86
2022/01/29 05:13:12;;;;;;;29.17;17.10;;;8.40;80.40;;;;;;5081825;28;20040;-86
2022/01/29 05:15:43;;;;;;;28.15;16.33;;;8.50;80.40;;;;;;5076772;28;20072;-84
2022/01/29 05:29:07;;;;;;;24.42;15.63;;;8.40;80.30;;;;;;5061263;28;20400;-86
2022/01/29 05:31:33;;;;;;;28.17;15.63;;;8.40;80.30;;;;;;5065548;28;20036;-86
2022/01/29 05:34:00;;;;;;;28.67;16.05;;;8.40;80.30;;;;;;5081171;28;20052;-85
2022/01/29 05:36:25;;;;;;;27.02;15.73;;;8.40;80.30;;;;;;5077306;28;20048;-86
2022/01/29 05:38:51;;;;;;;30.40;16.08;;;8.40;80.30;;;;;;5049483;28;20049;-86
2022/01/29 05:41:17;;;;;;;34.47;16.08;;;8.40;80.20;;;;;;5071683;28;20131;-86
2022/01/29 05:43:43;;;;;;;27.15;14.73;;;8.40;80.20;;;;;;5062281;28;20376;-86
2022/01/29 05:46:13;;;;;;;31.38;15.35;;;8.50;80.30;;;;;;5080129;28;20419;-86
2022/01/29 05:48:39;;;;;;;27.25;15.45;;;8.60;80.40;;;;;;5070675;28;20364;-85
2022/01/29 05:51:06;;;;;;;31.80;15.75;;;8.40;80.30;;;;;;5066479;28;20055;-86
2022/01/29 05:53:32;;;;;;;23.13;14.13;;;8.50;80.30;;;;;;5050540;28;20131;-86
2022/01/29 05:55:58;;;;;;;25.50;14.43;;;8.50;80.40;;;;;;5078339;28;20456;-86
2022/01/29 05:58:24;;;;;;;30.15;15.00;;;8.50;80.40;;;;;;5069123;28;20387;-86
2022/01/29 06:00:49;;;;;;;27.52;14.63;;;8.70;80.50;;;;;;5084148;28;20124;-86
2022/01/29 06:03:15;;;;;;;23.70;13.65;;;8.50;80.40;;;;;;5045028;28;20055;-85
2022/01/29 06:05:41;;;;;;;26.08;13.23;;;8.70;80.50;;;;;;5064353;28;20143;-86
2022/01/29 06:08:09;;;;;;;28.55;14.68;;;8.50;80.40;;;;;;5062398;28;20076;-86
2022/01/29 06:10:36;;;;;;;26.63;13.75;;;8.70;80.50;;;;;;5064548;28;20075;-86
2022/01/29 06:13:08;;;;;;;26.00;13.75;;;8.50;80.40;;;;;;5060606;28;20045;-86
2022/01/29 06:15:41;;;;;;;22.17;12.52;;;8.60;80.60;;;;;;5043047;28;20083;-85
2022/01/29 06:18:16;;;;;;;22.27;12.10;;;8.50;80.40;;;;;;5058772;28;20061;-86
2022/01/29 06:20:43;;;;;;;19.88;12.30;;;8.50;80.40;;;;;;5055922;28;20056;-85
2022/01/29 06:23:10;;;;;;;23.65;12.63;;;8.50;80.40;;;;;;5059108;28;20041;-87
2022/01/29 06:25:36;;;;;;;23.17;11.45;;;8.70;80.50;;;;;;5085387;28;20076;-87
2022/01/29 06:28:02;;;;;;;22.65;12.13;;;8.60;80.40;;;;;;5062790;28;20080;-86
2022/01/29 06:30:28;;;;;;;19.90;11.00;;;8.60;80.40;;;;;;5065905;28;20437;-86
2022/01/29 06:32:54;;;;;;;20.20;11.57;;;8.60;80.40;;;;;;5096522;28;20539;-86
2022/01/29 06:35:19;;;;;;;18.95;12.13;;;8.60;80.30;;;;;;5094259;28;20044;-84
2022/01/29 06:37:45;;;;;;;28.38;11.73;;;8.60;80.30;;;;;;5076596;28;20510;-86
2022/01/29 06:40:11;;;;;;;19.13;11.70;;;8.70;80.40;;;;;;5056231;28;20504;-86
2022/01/29 06:42:37;;;;;;;23.45;10.55;;;8.60;80.30;;;;;;5039044;28;20044;-86
2022/01/29 06:45:04;;;;;;;19.85;11.13;;;8.60;80.30;;;;;;5058524;28;20048;-86
2022/01/29 06:47:30;;;;;;;20.27;10.73;;;8.60;80.20;;;;;;5078815;28;20044;-86
2022/01/29 06:49:55;;;;;;;23.73;11.95;;;8.60;80.20;;;;;;5076611;28;20041;-86
2022/01/29 06:52:21;;;;;;;24.35;10.45;;;9.10;80.50;;;;;;5087457;28;20109;-86
2022/01/29 06:54:47;;;;;;;21.55;11.20;;;8.60;80.20;;;;;;5096696;28;20086;-86
2022/01/29 06:57:13;;;;;;;22.75;10.20;;;9.10;80.50;;;;;;5062591;28;20036;-86
2022/01/29 06:59:38;;;;;;;19.55;10.85;;;8.60;80.20;;;;;;5063548;28;20091;-86
2022/01/29 07:02:04;;;;;;;26.30;11.73;;;9.00;80.40;;;;;;5062083;28;20089;-86
2022/01/29 07:04:30;;;;;;;22.10;10.95;;;8.60;80.20;;;;;;5061192;28;20126;-86
2022/01/29 07:06:56;;;;;;;17.73;9.80;;;8.70;80.20;;;;;;5053043;28;20049;-86
2022/01/29 07:09:22;;;;;;;25.27;10.40;;;8.70;80.20;;;;;;5073836;28;20044;-87
2022/01/29 07:11:54;;;;;;;24.70;10.80;;;8.70;80.20;;;;;;5059292;28;20041;-86
2022/01/29 07:14:19;;;;;;;21.10;10.65;;;8.70;80.20;;;;;;5054412;28;20051;-86
2022/01/29 07:16:45;;;;;;;18.25;10.48;;;8.70;80.20;;;;;;5070321;28;20037;-86
2022/01/29 07:19:11;;;;;;;21.38;11.60;;;8.70;80.20;;;;;;5046095;28;20068;-86
2022/01/29 07:21:39;;;;;;;19.40;9.88;;;9.00;80.40;;;;;;5076089;28;20044;-85
2022/01/29 07:24:06;;;;;;;23.42;11.77;;;8.70;80.20;;;;;;5066095;28;20040;-86
2022/01/29 07:26:31;;;;;;;25.25;10.18;;;8.70;80.20;;;;;;5075525;28;20045;-87
2022/01/29 07:28:57;;;;;;;20.00;10.48;;;8.70;80.20;;;;;;5057584;28;20047;-87
2022/01/29 07:31:23;;;;;;;22.13;9.90;;;8.80;80.20;;;;;;5043792;28;20060;-87
2022/01/29 07:33:49;;;;;;;22.13;10.70;;;9.00;80.30;;;;;;5056874;28;20083;-86
2022/01/29 07:36:15;;;;;;;20.88;10.05;;;8.80;80.30;;;;;;5055669;28;20378;-87
2022/01/29 07:38:40;;;;;;;17.92;9.70;;;9.10;80.40;;;;;;5055833;28;20047;-87
2022/01/29 07:41:06;;;;;;;14.40;9.10;;;9.10;80.40;;;;;;5056859;28;20400;-87
2022/01/29 07:43:32;;;;;;;21.17;10.70;;;8.80;80.30;;;;;;5075938;28;20055;-87
2022/01/29 07:45:57;;;;;;;21.25;10.40;;;8.80;80.70;;;;;;5059159;28;20139;-86
2022/01/29 07:48:24;;;;;;;20.15;9.23;;;8.80;80.20;;;;;;5086852;28;20473;-85
2022/01/29 07:50:50;;;;;;;18.88;9.00;;;9.00;80.80;;;;;;5074353;28;20404;-88
2022/01/29 07:53:16;;;;;;;16.25;9.23;;;8.80;80.30;;;;;;5059569;28;20051;-87
2022/01/29 07:55:41;;;;;;;17.33;9.38;;;8.80;80.30;;;;;;5088112;28;20123;-87
2022/01/29 07:58:07;;;;;;;16.88;9.20;;;8.80;80.40;;;;;;5075496;28;20036;-87
2022/01/29 08:00:33;;;;;;;17.23;8.60;;;9.00;80.50;;;;;;5060658;28;20032;-87
2022/01/29 08:02:59;;;;;;;15.77;9.65;;;8.80;80.30;;;;;;5055772;28;20043;-87
2022/01/29 08:05:26;;;;;;;17.92;8.35;;;8.90;80.40;;;;;;5056121;28;20055;-85
2022/01/29 08:07:52;;;;;;;15.27;8.38;;;8.90;80.40;;;;;;5075058;28;20049;-86
2022/01/29 08:10:17;;;;;;;14.85;7.97;;;8.90;80.40;;;;;;5039518;28;20059;-87
2022/01/29 08:12:43;;;;;;;16.48;7.80;;;9.00;80.40;;;;;;5054416;28;20366;-87
2022/01/29 08:15:09;;;;;;;13.05;7.72;;;8.90;80.20;;;;;;5057533;28;20041;-86
2022/01/29 08:17:35;;;;;;;21.33;8.68;;;8.90;80.20;;;;;;5054868;28;20055;-87
2022/01/29 08:20:02;;;;;;;13.25;7.50;;;8.90;80.20;;;;;;5077079;28;20044;-87
2022/01/29 08:22:28;;;;;;;13.18;6.80;;;9.00;80.20;;;;;;5054976;28;20044;-87
2022/01/29 08:24:54;;;;;;;13.57;6.70;;;9.00;80.10;;;;;;5087619;28;20514;-87
2022/01/29 08:27:20;;;;;;;19.23;6.72;;;9.10;80.10;;;;;;5059767;28;20068;-86
2022/01/29 08:29:46;;;;;;;15.32;7.53;;;9.00;80.00;;;;;;5074109;28;20056;-87
2022/01/29 08:32:11;;;;;;;9.50;6.05;;;9.20;80.00;;;;;;5059843;28;20063;-86
2022/01/29 08:34:39;;;;;;;13.02;6.50;;;9.00;79.90;;;;;;5057268;28;20111;-87
2022/01/29 08:37:05;;;;;;;17.20;6.88;;;9.30;80.10;;;;;;5044531;28;20036;-86
2022/01/29 08:39:31;;;;;;;14.43;5.90;;;9.00;79.90;;;;;;5054327;28;20387;-86
2022/01/29 08:41:57;;;;;;;16.85;6.35;;;9.00;79.90;;;;;;5084298;28;20476;-86
2022/01/29 08:44:23;;;;;;;14.20;6.57;;;9.10;80.00;;;;;;5074570;28;20051;-88
2022/01/29 08:46:49;;;;;;;13.32;5.53;;;9.00;79.90;;;;;;5060707;28;20040;-87
2022/01/29 08:49:14;;;;;;;14.55;6.10;;;9.00;79.90;;;;;;5088925;28;20081;-85
2022/01/29 08:51:40;;;;;;;15.43;6.63;;;9.30;80.10;;;;;;5046810;28;20136;-85
2022/01/29 08:54:06;;;;;;;16.90;6.10;;;9.10;80.00;;;;;;5045555;28;20048;-86
2022/01/29 08:56:32;;;;;;;15.88;6.95;;;9.10;80.00;;;;;;5074159;28;20112;-85
2022/01/29 08:58:57;;;;;;;15.27;6.65;;;9.10;80.00;;;;;;5063750;28;20040;-93
2022/01/29 09:01:23;;;;;;;15.98;6.60;;;9.10;80.10;;;;;;5076014;28;20044;-86
2022/01/29 09:03:49;;;;;;;16.05;6.72;;;9.10;80.10;;;;;;5077250;28;20468;-86
2022/01/29 09:06:15;;;;;;;12.43;6.18;;;9.30;80.20;;;;;;5037553;28;20068;-85
2022/01/29 09:08:45;;;;;;;15.30;6.30;;;9.20;80.20;;;;;;5028239;28;20044;-85
2022/01/29 09:11:11;;;;;;;14.75;6.10;;;9.50;80.40;;;;;;5078106;28;20133;-86
2022/01/29 09:13:37;;;;;;;14.55;5.70;;;9.20;80.20;;;;;;5055429;28;20048;-87
2022/01/29 09:16:03;;;;;;;10.50;6.00;;;9.30;80.30;;;;;;5040572;28;20041;-87
2022/01/29 09:18:28;;;;;;;13.40;5.72;;;9.30;80.30;;;;;;5036558;28;20037;-89
2022/01/29 09:20:54;;;;;;;15.50;5.55;;;9.30;80.20;;;;;;5047935;28;20044;-88
2022/01/29 09:23:19;;;;;;;10.98;5.00;;;9.40;80.30;;;;;;5054677;28;20049;-90
2022/01/29 09:25:45;;;;;;;10.95;5.20;;;9.90;80.60;;;;;;5049586;28;20045;-89
2022/01/29 09:28:12;;;;;;;11.88;5.00;;;9.50;80.30;;;;;;5043842;28;20032;-88
2022/01/29 09:30:38;;;;;;;12.63;4.90;;;9.90;80.50;;;;;;5069358;28;20033;-88
2022/01/29 09:33:04;;;;;;;11.00;4.43;;;9.50;80.20;;;;;;5061651;28;20055;-87
2022/01/29 09:35:30;;;;;;;11.93;4.50;;;9.70;80.30;;;;;;5075649;28;20483;-90
2022/01/29 09:37:56;;;;;;;12.52;4.25;;;9.60;80.10;;;;;;5084884;28;20074;-88
2022/01/29 09:40:22;;;;;;;11.70;4.35;;;9.70;80.10;;;;;;5065807;28;20036;-86
2022/01/29 09:42:50;;;;;;;12.23;4.60;;;9.60;79.90;;;;;;5078114;28;20060;-90
2022/01/29 09:45:19;;;;;;;9.55;3.92;;;10.10;80.10;;;;;;5058649;28;20040;-89
2022/01/29 09:47:46;;;;;;;14.60;3.75;;;9.70;79.80;;;;;;5057085;28;20401;-90
2022/01/29 09:56:38;;;;;;;12.07;3.72;;;9.80;79.50;;;;;;5066503;24;20147;-93
2022/01/29 09:59:03;;;;;;;11.77;3.90;;;9.80;79.50;;;;;;4736202;30;20461;-92
2022/01/29 10:01:29;;;;;;;13.38;3.85;;;9.80;79.40;;;;;;4737919;30;20051;-91
2022/01/29 10:04:02;;;;;;;6.60;3.53;;;9.90;79.30;;;;;;4736219;30;20732;-93
2022/01/29 10:06:28;;;;;;;14.73;3.67;;;10.20;79.40;;;;;;4722411;30;20144;-93
2022/01/29 10:08:54;;;;;;;13.55;4.40;;;9.90;79.70;;;;;;4736290;30;20049;-92
2022/01/29 10:11:24;;;;;;;13.25;3.20;;;9.80;79.00;;;;;;4724386;30;20544;-94
2022/01/29 10:13:51;;;;;;;11.25;3.50;;;10.20;79.20;;;;;;4751848;30;20083;-95
2022/01/29 10:16:28;;;;;;;13.48;3.15;;;9.90;78.80;;;;;;4755334;30;20048;-94
2022/01/29 10:19:13;;;;;;;15.85;4.15;;;9.90;78.70;;;;;;4758258;30;20083;-94
2022/01/29 10:21:46;;;;;;;9.05;3.33;;;10.00;78.60;;;;;;4771889;30;20071;-92
2022/01/29 10:24:21;;;;;;;8.77;2.88;;;10.00;78.60;;;;;;4766420;30;20116;-94
2022/01/29 10:26:49;;;;;;;10.27;3.80;;;10.00;78.60;;;;;;4763091;30;20052;-90
2022/01/29 10:29:20;;;;;;;11.50;3.25;;;10.20;78.70;;;;;;4759955;30;20069;-91
2022/01/29 10:31:49;;;;;;;7.30;3.20;;;10.00;78.40;;;;;;4755515;30;20108;-90
2022/01/29 10:34:21;;;;;;;8.95;2.95;;;10.10;78.40;;;;;;4753091;30;20056;-88
2022/01/29 10:37:20;;;;;;;8.35;2.70;;;10.10;78.20;;;;;;4755980;30;20072;-90
2022/01/29 10:39:57;;;;;;;9.07;3.35;;;10.10;78.10;;;;;;4768323;30;20055;-89
2022/01/29 10:42:42;;;;;;;9.55;3.05;;;10.10;78.20;;;;;;4756835;30;20056;-90
2022/01/29 10:45:08;;;;;;;8.93;3.33;;;10.10;78.10;;;;;;4753381;30;20052;-90
2022/01/29 10:47:54;;;;;;;11.20;2.63;;;10.10;78.10;;;;;;4730931;30;20086;-89
2022/01/29 10:50:19;;;;;;;13.13;2.88;;;10.10;77.90;;;;;;4743634;30;20131;-89
2022/01/29 10:52:45;;;;;;;8.45;2.75;;;10.60;78.20;;;;;;4744808;30;20044;-89
2022/01/29 10:55:11;;;;;;;8.95;2.63;;;10.20;77.80;;;;;;4751473;30;20035;-90
2022/01/29 10:57:41;;;;;;;10.98;2.75;;;10.20;77.60;;;;;;4742944;30;20135;-91
2022/01/29 11:00:30;;;;;;;11.30;2.63;;;10.20;77.50;;;;;;4735463;30;20113;-89
2022/01/29 11:02:58;;;;;;;9.85;2.30;;;10.30;77.40;;;;;;4747619;30;20408;-90
2022/01/29 11:05:27;;;;;;;13.77;3.22;;;10.40;77.50;;;;;;4746229;30;20075;-88
2022/01/29 11:07:55;;;;;;;8.45;2.38;;;10.30;77.40;;;;;;4745083;30;20070;-91
2022/01/29 11:10:21;;;;;;;13.98;4.10;;;10.30;77.30;;;;;;4742116;30;20053;-92
2022/01/29 11:17:07;;;;;;;11.00;4.00;;;10.40;77.10;;;;;;4757540;30;20108;-93
2022/01/29 11:19:33;;;;;;;14.75;4.55;;;10.40;77.20;;;;;;4741479;30;20059;-91
2022/01/29 11:22:04;;;;;;;17.02;4.85;;;10.40;77.30;;;;;;4737688;30;20098;-91
2022/01/29 11:24:31;;;;;;;12.38;4.28;;;10.50;77.30;;;;;;4724133;30;20123;-94
2022/01/29 11:26:56;;;;;;;9.98;3.00;;;10.50;77.20;;;;;;4740031;30;20048;-91
2022/01/29 11:29:34;;;;;;;12.88;3.67;;;10.50;76.90;;;;;;4760274;30;20052;-91
2022/01/29 11:32:22;;;;;;;11.88;3.08;;;10.50;76.80;;;;;;4755879;30;20108;-95
2022/01/29 11:35:11;;;;;;;13.05;3.47;;;10.60;76.40;;;;;;4745173;30;20508;-96
2022/01/29 11:37:54;;;;;;;11.23;2.75;;;10.60;76.40;;;;;;4758893;30;20048;-91
2022/01/29 11:40:22;;;;;;;9.77;2.53;;;10.60;76.20;;;;;;4760437;30;20051;-93
2022/01/29 11:43:06;;;;;;;12.20;2.95;;;10.60;76.20;;;;;;4756913;30;20049;-93
2022/01/29 11:45:49;;;;;;;14.13;2.50;;;10.70;76.20;;;;;;4742194;30;20063;-94
2022/01/29 11:48:28;;;;;;;11.07;2.92;;;10.70;76.10;;;;;;4758002;30;20058;-94
2022/01/29 11:50:55;;;;;;;11.13;2.72;;;10.70;76.00;;;;;;4725753;30;20056;-92
2022/01/29 11:53:22;;;;;;;8.63;2.42;;;10.70;76.10;;;;;;4740943;30;20113;-92
2022/01/29 11:56:27;;;;;;;8.07;2.70;;;10.80;75.90;;;;;;4757418;30;20044;-96
2022/01/29 11:59:17;;;;;;;13.67;2.87;;;10.80;75.50;;;;;;4739892;30;20056;-91
2022/01/29 12:01:44;;;;;;;9.18;2.97;;;10.80;75.50;;;;;;4725592;30;20060;-90
2022/01/29 12:04:10;;;;;;;7.50;2.20;;;10.90;75.50;;;;;;4760856;30;20055;-86
2022/01/29 12:06:41;;;;;;;11.73;2.45;;;10.90;75.30;;;;;;4764191;30;20097;-87
2022/01/29 12:09:19;;;;;;;6.03;1.90;;;11.10;75.30;;;;;;4742945;30;20059;-87
2022/01/29 12:12:14;;;;;;;9.82;2.75;;;11.10;75.10;;;;;;4721355;30;20068;-86
2022/01/29 12:14:40;;;;;;;7.35;2.40;;;11.00;74.70;;;;;;4731996;30;20408;-86
2022/01/29 12:17:07;;;;;;;11.15;3.00;;;11.00;74.80;;;;;;4753727;30;20137;-86
2022/01/29 12:19:44;;;;;;;9.60;2.72;;;11.00;74.70;;;;;;4723939;30;20420;-87
2022/01/29 12:22:12;;;;;;;12.10;3.80;;;11.10;74.70;;;;;;4738806;30;20062;-86
2022/01/29 12:24:40;;;;;;;12.18;3.92;;;11.20;74.90;;;;;;4736430;30;20060;-86
2022/01/29 12:27:06;;;;;;;8.10;3.00;;;11.30;74.80;;;;;;4732153;30;20048;-86
2022/01/29 12:29:31;;;;;;;10.48;3.70;;;11.50;74.90;;;;;;4720597;30;20121;-86
2022/01/29 12:31:58;;;;;;;11.75;3.58;;;11.10;74.50;;;;;;4746805;30;20056;-88
2022/01/29 12:34:28;;;;;;;15.27;3.90;;;11.50;74.70;;;;;;4737571;30;20056;-87
2022/01/29 12:37:14;;;;;;;11.63;3.97;;;11.20;74.20;;;;;;4737152;30;20508;-89
2022/01/29 12:39:46;;;;;;;12.27;3.40;;;11.30;73.90;;;;;;4744908;30;20127;-89
2022/01/29 12:44:56;;;;;;;13.68;3.33;;;11.20;74.00;;;;;;4738307;30;20058;-95
2022/01/29 12:47:32;;;;;;;14.43;3.17;;;11.20;74.30;;;;;;4760061;30;20059;-96
2022/01/29 12:50:02;;;;;;;14.27;4.28;;;11.20;73.90;;;;;;4750637;30;20052;-96
2022/01/29 12:52:29;;;;;;;14.38;3.90;;;11.30;74.00;;;;;;4747747;30;20039;-91
2022/01/29 12:55:00;;;;;;;11.30;3.42;;;11.20;74.00;;;;;;4767222;30;20090;-92
2022/01/29 12:58:04;;;;;;;10.80;4.32;;;11.20;73.90;;;;;;4746460;30;20073;-92
2022/01/29 13:00:31;;;;;;;12.55;3.60;;;11.30;73.80;;;;;;4754613;30;20113;-91
2022/01/29 13:03:09;;;;;;;10.10;3.83;;;11.30;74.00;;;;;;4755032;30;20550;-90
2022/01/29 13:05:42;;;;;;;14.90;3.78;;;11.30;73.70;;;;;;4754197;30;20059;-91
2022/01/29 13:08:09;;;;;;;15.60;4.32;;;11.30;73.80;;;;;;4753143;30;20063;-89
2022/01/29 13:10:35;;;;;;;12.57;3.80;;;11.20;73.90;;;;;;4753909;30;20082;-90
2022/01/29 13:13:02;;;;;;;10.25;3.83;;;11.30;73.90;;;;;;4753565;30;20059;-89